Observations for LUTON AIRPORT, United Kingdom (EGGW)

EGGW 221420Z AUTO 35010KT 300V020 9999 NCD 12/03 Q1037  
EGGW 221350Z AUTO 34010KT 300V010 9999 NCD 12/03 Q1037  
EGGW 221320Z AUTO 33010KT 310V010 9999 NCD 11/03 Q1037  
EGGW 221250Z AUTO 34011KT 9999 NCD 12/03 Q1037  
EGGW 221220Z AUTO 35010KT 300V020 9999 NCD 11/04 Q1037  
EGGW 221150Z AUTO 36012KT 320V030 9999 NCD 11/03 Q1037  
EGGW 221120Z AUTO 35014KT 9999 NCD 11/03 Q1037  
EGGW 221050Z AUTO 01013KT 330V030 9999 NCD 10/03 Q1037  
EGGW 221020Z AUTO 01013KT 9999 NCD 10/03 Q1037  
EGGW 220950Z 01013KT CAVOK 09/04 Q1037  
EGGW 220920Z AUTO 35012KT 9999 NCD 09/03 Q1037  
EGGW 220850Z AUTO 35011KT 9999 NCD 08/03 Q1037  
EGGW 220820Z AUTO 35010KT 300V010 9999 NCD 07/03 Q1036  
EGGW 220750Z AUTO 34010KT 300V010 9999 NCD 06/03 Q1036  
EGGW 220720Z AUTO 34010KT 300V020 9999 NCD 06/02 Q1036  
EGGW 220650Z AUTO 34011KT 300V010 9999 NCD 05/02 Q1035  
EGGW 220620Z AUTO 34009KT 9999 NCD 05/02 Q1035  
EGGW 220550Z AUTO 34010KT 310V010 9999 NCD 06/02 Q1034  
EGGW 220520Z AUTO 34012KT 9999 NCD 06/03 Q1034  
EGGW 220450Z AUTO 34011KT 9999 NCD 06/03 Q1034  
EGGW 220420Z AUTO 34010KT 9999 NCD 06/04 Q1034  
EGGW 220350Z AUTO 34010KT 9999 NCD 06/04 Q1033  
EGGW 220320Z AUTO 35011KT 9999 NCD 07/04 Q1033  
EGGW 220250Z AUTO 35010KT 9999 NCD 07/04 Q1033  
EGGW 220220Z AUTO 35013KT 9999 NCD 08/05 Q1033  
EGGW 220150Z AUTO 35014KT 9999 NCD 08/05 Q1033  
EGGW 220120Z AUTO 35011KT 9999 FEW023 SCT036 09/06 Q1032
EGGW 220050Z AUTO 35013KT 9999 BKN021 OVC030 10/06 Q1032
EGGW 220020Z AUTO 35012KT 9999 OVC029 10/07 Q1032   
EGGW 212350Z AUTO 35011KT 9999 OVC025 11/08 Q1031   
EGGW 212320Z AUTO 35010KT 9999 OVC019 11/08 Q1031   
EGGW 212250Z AUTO 34012KT 9999 BKN016 OVC020 11/08 Q1031
EGGW 212220Z AUTO 34012KT 9999 OVC020 11/08 Q1030   
EGGW 212150Z AUTO 33014KT 9999 BKN019 OVC042 11/09 Q1030
EGGW 212120Z AUTO 33013KT 9999 -RA BKN039 12/10 Q1029   
EGGW 212050Z AUTO 33014KT 9999 BKN006 BKN039 13/12 Q1029
EGGW 212020Z AUTO 33013KT 4100 -DZ BKN004 BKN007 13/12 Q1029
EGGW 211950Z AUTO 33012KT 300V360 3900 -RADZ FEW010 BKN015 BKN024 14/12 Q1028   
EGGW 211920Z AUTO 33010KT 290V350 9999 OVC020 15/12 Q1028   
EGGW 211850Z 32011KT 9999 BKN020 15/12 Q1028
EGGW 211820Z AUTO 31010KT 9999 BKN024 BKN030 15/11 Q1027
EGGW 211750Z AUTO 31010KT 9999 BKN021 OVC025 15/11 Q1027
EGGW 211720Z AUTO 31007KT 9999 OVC024 16/11 Q1027   
EGGW 211650Z AUTO 29008KT 9999 FEW027 15/11 Q1026   
EGGW 211620Z AUTO 28009KT 9999 OVC049 16/11 Q1026   
EGGW 211550Z AUTO 26009KT 9999 FEW048 16/11 Q1026   
EGGW 211520Z AUTO 26009KT 9999 NCD 16/11 Q1026  
EGGW 211450Z AUTO 26010KT 9999 NCD 16/10 Q1026  
EGGW 211420Z AUTO 26008KT 9999 NCD 16/10 Q1026  
EGGW 211350Z AUTO 26010KT 9999 NCD 16/10 Q1026